Time;durP1;ratioP1;P1;durP2;ratioP2;P2;SDS_P1;SDS_P2;PMS_P1;PMS_P2;Temp;Humidity;BMP_temperature;BMP_pressure;BME280_temperature;BME280_humidity;BME280_pressure;Samples;Min_cycle;Max_cycle;Signal;HPM_P1;HPM_P2
2022/09/15 00:02:20;;;;;;;4.40;2.10;;;12.10;99.90;;;;;;4982638;28;20609;-79
2022/09/15 00:04:46;;;;;;;3.13;1.77;;;12.20;99.90;;;;;;5001149;28;20226;-79
2022/09/15 00:07:13;;;;;;;3.57;1.80;;;12.30;99.90;;;;;;4999545;28;20268;-79
2022/09/15 00:09:40;;;;;;;3.47;1.50;;;12.30;99.90;;;;;;4994354;28;20228;-80
2022/09/15 00:12:08;;;;;;;4.63;1.80;;;12.40;99.90;;;;;;5004361;28;20225;-80
2022/09/15 00:14:36;;;;;;;5.07;1.43;;;12.50;99.90;;;;;;5005475;28;20228;-80
2022/09/15 00:17:03;;;;;;;6.03;1.80;;;12.60;99.90;;;;;;5005591;28;20616;-80
2022/09/15 00:19:30;;;;;;;8.57;1.80;;;12.60;99.90;;;;;;5007868;28;20223;-80
2022/09/15 00:21:56;;;;;;;4.53;1.43;;;12.70;99.90;;;;;;5001615;28;20245;-79
2022/09/15 00:24:23;;;;;;;4.57;1.80;;;12.80;99.90;;;;;;5002666;28;20259;-79
2022/09/15 00:26:50;;;;;;;4.17;1.37;;;12.90;99.90;;;;;;5003017;28;20221;-79
2022/09/15 00:29:16;;;;;;;5.17;1.40;;;12.90;99.90;;;;;;5002502;28;20232;-79
2022/09/15 00:31:44;;;;;;;4.13;1.30;;;13.00;99.90;;;;;;5001986;28;20234;-81
2022/09/15 00:34:12;;;;;;;3.40;1.37;;;13.00;99.90;;;;;;4998349;28;20226;-80
2022/09/15 00:36:39;;;;;;;5.03;1.53;;;13.10;99.90;;;;;;5003323;28;20894;-79
2022/09/15 00:39:06;;;;;;;4.70;1.50;;;13.10;99.90;;;;;;5003780;28;20294;-79
2022/09/15 00:41:33;;;;;;;4.30;1.30;;;13.10;99.90;;;;;;5004883;28;20235;-79
2022/09/15 00:44:01;;;;;;;4.10;1.43;;;13.10;99.90;;;;;;5002055;28;20235;-80
2022/09/15 00:46:32;;;;;;;3.50;1.50;;;13.10;99.90;;;;;;4998078;28;20249;-79
2022/09/15 00:49:06;;;;;;;3.20;1.60;;;13.10;99.90;;;;;;5006130;28;20232;-80
2022/09/15 00:51:38;;;;;;;2.63;1.30;;;13.10;99.90;;;;;;4983736;28;21204;-79
2022/09/15 00:54:14;;;;;;;3.43;1.20;;;13.10;99.90;;;;;;5003299;28;21045;-79
2022/09/15 00:56:43;;;;;;;1.93;1.23;;;13.10;99.90;;;;;;4998296;28;20224;-79
2022/09/15 00:59:14;;;;;;;5.07;1.87;;;13.10;99.90;;;;;;5002698;28;20233;-78
2022/09/15 01:01:43;;;;;;;4.23;1.40;;;13.10;99.90;;;;;;5002074;28;20235;-80
2022/09/15 01:04:12;;;;;;;2.60;1.43;;;13.10;99.90;;;;;;5019093;28;20585;-79
2022/09/15 01:06:45;;;;;;;4.27;1.40;;;13.10;99.90;;;;;;5001289;28;20228;-80
2022/09/15 01:09:16;;;;;;;3.80;1.30;;;13.10;99.90;;;;;;4996164;28;20226;-79
2022/09/15 01:11:43;;;;;;;3.73;1.40;;;13.10;99.90;;;;;;5001370;28;20236;-79
2022/09/15 01:14:10;;;;;;;4.00;1.53;;;13.10;99.90;;;;;;4999449;28;20721;-80
2022/09/15 01:16:48;;;;;;;3.10;1.57;;;13.00;99.90;;;;;;5005051;28;20220;-80
2022/09/15 01:19:38;;;;;;;3.37;1.77;;;13.10;99.90;;;;;;5003816;28;20257;-79
2022/09/15 01:22:16;;;;;;;3.63;1.60;;;13.10;99.90;;;;;;4999401;28;21032;-79
2022/09/15 01:24:48;;;;;;;3.13;1.67;;;13.10;99.90;;;;;;4999295;28;20591;-79
2022/09/15 01:27:39;;;;;;;2.37;1.30;;;13.10;99.90;;;;;;5004020;28;20228;-79
2022/09/15 01:30:09;;;;;;;2.60;1.40;;;13.10;99.90;;;;;;5004409;28;20325;-79
2022/09/15 01:33:04;;;;;;;3.03;1.60;;;13.10;99.90;;;;;;4999635;28;20240;-79
2022/09/15 01:35:53;;;;;;;4.03;1.40;;;13.10;99.90;;;;;;5003295;28;20258;-80
2022/09/15 01:38:27;;;;;;;3.53;1.67;;;13.10;99.90;;;;;;4995014;28;20225;-80
2022/09/15 01:40:59;;;;;;;3.10;1.73;;;13.10;99.90;;;;;;4987925;28;20237;-79
2022/09/15 01:43:28;;;;;;;3.93;1.60;;;13.10;99.90;;;;;;5019527;28;20224;-78
2022/09/15 01:45:58;;;;;;;2.53;1.40;;;13.10;99.90;;;;;;4997788;28;20230;-79
2022/09/15 01:48:28;;;;;;;3.60;1.40;;;13.10;99.90;;;;;;4998811;28;20661;-78
2022/09/15 01:50:58;;;;;;;3.97;1.47;;;13.10;99.90;;;;;;5000815;28;20228;-79
2022/09/15 01:53:26;;;;;;;6.00;1.83;;;13.10;99.90;;;;;;5002240;28;20249;-78
2022/09/15 01:55:56;;;;;;;4.90;1.57;;;13.10;99.90;;;;;;5002772;28;20226;-79
2022/09/15 01:58:23;;;;;;;2.10;1.50;;;13.10;99.90;;;;;;5005019;28;20235;-80
2022/09/15 02:00:55;;;;;;;2.37;1.40;;;13.10;99.90;;;;;;5004392;28;20996;-78
2022/09/15 02:03:31;;;;;;;4.40;1.63;;;13.10;99.90;;;;;;5001627;28;20238;-79
2022/09/15 02:06:02;;;;;;;2.93;1.57;;;13.10;99.90;;;;;;5002905;28;20295;-79
2022/09/15 02:08:36;;;;;;;2.77;1.50;;;13.10;99.90;;;;;;5002851;28;20782;-78
2022/09/15 02:11:29;;;;;;;3.27;1.50;;;13.10;99.90;;;;;;4995986;28;20664;-79
2022/09/15 02:14:10;;;;;;;4.13;1.50;;;13.10;99.90;;;;;;4994870;28;20227;-81
2022/09/15 02:16:39;;;;;;;2.73;1.70;;;13.10;99.90;;;;;;4971616;28;20400;-78
2022/09/15 02:19:16;;;;;;;4.83;1.90;;;13.10;99.90;;;;;;4995037;28;20225;-79
2022/09/15 02:21:53;;;;;;;2.77;1.70;;;13.10;99.90;;;;;;4998434;28;20316;-80
2022/09/15 02:24:28;;;;;;;6.30;2.03;;;13.10;99.90;;;;;;4995673;28;20225;-79
2022/09/15 02:26:55;;;;;;;3.40;1.67;;;13.10;99.90;;;;;;4997830;28;20230;-78
2022/09/15 02:29:25;;;;;;;6.03;1.70;;;13.10;99.90;;;;;;4999456;28;20222;-79
2022/09/15 02:31:55;;;;;;;4.67;2.10;;;13.10;99.90;;;;;;4993757;28;20225;-81
2022/09/15 02:34:26;;;;;;;3.20;1.83;;;13.10;99.90;;;;;;4996417;28;20316;-79
2022/09/15 02:36:55;;;;;;;5.67;2.20;;;13.10;99.90;;;;;;4993605;28;20224;-79
2022/09/15 02:39:27;;;;;;;5.60;2.20;;;13.10;99.90;;;;;;5002016;28;20228;-79
2022/09/15 02:41:54;;;;;;;3.53;1.90;;;13.10;99.90;;;;;;5001960;28;20236;-80
2022/09/15 02:44:22;;;;;;;4.50;1.97;;;13.10;99.90;;;;;;4999187;28;20233;-79
2022/09/15 02:46:49;;;;;;;4.27;2.10;;;13.10;99.90;;;;;;5000919;28;20237;-79
2022/09/15 02:49:15;;;;;;;4.57;2.00;;;13.10;99.90;;;;;;4997502;28;20333;-79
2022/09/15 02:51:43;;;;;;;3.50;1.73;;;13.10;99.90;;;;;;4996047;28;20233;-80
2022/09/15 02:54:10;;;;;;;4.13;1.73;;;13.10;99.90;;;;;;4997006;28;20217;-79
2022/09/15 02:56:37;;;;;;;5.40;2.00;;;13.10;99.90;;;;;;4979634;28;20225;-82
2022/09/15 02:59:04;;;;;;;3.70;1.90;;;13.10;99.90;;;;;;4999005;28;20219;-79
2022/09/15 03:01:33;;;;;;;3.87;1.80;;;13.10;99.90;;;;;;5010903;28;20228;-80
2022/09/15 03:04:00;;;;;;;4.53;1.93;;;13.10;99.90;;;;;;5001798;28;20467;-82
2022/09/15 03:06:33;;;;;;;5.77;1.97;;;13.00;99.90;;;;;;5015941;28;20232;-81
2022/09/15 03:09:03;;;;;;;9.00;1.90;;;13.00;99.90;;;;;;5000572;28;20302;-81
2022/09/15 03:11:30;;;;;;;4.90;2.10;;;12.90;99.90;;;;;;5003616;28;20335;-83
2022/09/15 03:13:59;;;;;;;4.50;1.60;;;13.00;99.90;;;;;;5001327;28;20787;-82
2022/09/15 03:16:27;;;;;;;3.20;1.83;;;12.90;99.90;;;;;;4997851;28;20230;-80
2022/09/15 03:18:54;;;;;;;4.57;1.80;;;12.90;99.90;;;;;;5002311;28;20228;-82
2022/09/15 03:21:21;;;;;;;3.53;1.80;;;12.90;99.90;;;;;;4995927;28;20227;-81
2022/09/15 03:23:48;;;;;;;5.93;1.90;;;12.80;99.90;;;;;;4997595;28;21045;-81
2022/09/15 03:26:17;;;;;;;4.87;2.00;;;12.80;99.90;;;;;;4999352;28;20246;-82
2022/09/15 03:28:44;;;;;;;6.87;2.00;;;12.80;99.90;;;;;;5001735;28;20244;-81
2022/09/15 03:31:11;;;;;;;4.47;2.03;;;12.80;99.90;;;;;;4998677;28;20223;-81
2022/09/15 03:33:37;;;;;;;6.40;2.33;;;12.80;99.90;;;;;;4998856;28;20232;-80
2022/09/15 03:36:05;;;;;;;5.13;2.10;;;12.80;99.90;;;;;;5002574;28;20233;-79
2022/09/15 03:38:32;;;;;;;9.27;2.27;;;12.80;99.90;;;;;;5001231;28;20234;-85
2022/09/15 03:41:01;;;;;;;6.53;2.37;;;12.70;99.90;;;;;;4998888;28;20237;-82
2022/09/15 03:43:30;;;;;;;4.70;1.70;;;12.80;99.90;;;;;;4997165;28;20227;-81
2022/09/15 03:45:58;;;;;;;5.37;2.03;;;12.80;99.90;;;;;;4998738;28;20230;-81
2022/09/15 03:48:26;;;;;;;5.47;1.80;;;12.80;99.90;;;;;;5000812;28;20247;-80
2022/09/15 03:50:53;;;;;;;3.23;2.00;;;12.80;99.90;;;;;;4997987;28;20237;-81
2022/09/15 03:53:20;;;;;;;4.50;1.80;;;12.80;99.90;;;;;;4992635;28;20325;-80
2022/09/15 03:55:48;;;;;;;3.97;1.80;;;12.80;99.90;;;;;;4998316;28;20243;-81
2022/09/15 03:58:16;;;;;;;4.90;1.80;;;12.80;99.90;;;;;;4996581;28;20262;-80
2022/09/15 04:00:44;;;;;;;5.23;1.83;;;12.80;99.90;;;;;;4994476;28;20221;-84
2022/09/15 04:03:11;;;;;;;3.87;1.70;;;12.80;99.90;;;;;;4985471;28;20440;-82
2022/09/15 04:05:39;;;;;;;4.83;1.83;;;12.80;99.90;;;;;;4994094;28;20258;-81
2022/09/15 04:08:05;;;;;;;4.53;1.70;;;12.80;99.90;;;;;;5000095;28;20304;-82
2022/09/15 04:10:32;;;;;;;2.93;1.50;;;12.80;99.90;;;;;;5016951;28;20240;-87
2022/09/15 04:12:59;;;;;;;8.83;2.00;;;12.80;99.90;;;;;;5001813;28;20242;-84
2022/09/15 04:15:25;;;;;;;7.90;2.10;;;12.70;99.90;;;;;;5005135;28;20234;-81
2022/09/15 04:17:53;;;;;;;4.73;2.00;;;12.70;99.90;;;;;;4998377;28;20226;-80
2022/09/15 04:20:20;;;;;;;6.57;2.30;;;12.70;99.90;;;;;;5000039;28;20695;-82
2022/09/15 04:22:47;;;;;;;8.00;2.37;;;12.70;99.90;;;;;;5015123;28;20229;-80
2022/09/15 04:25:14;;;;;;;4.43;1.97;;;12.60;99.90;;;;;;5000906;28;20308;-79
2022/09/15 04:27:41;;;;;;;6.30;2.17;;;12.60;99.90;;;;;;5001172;28;20234;-80
2022/09/15 04:30:09;;;;;;;6.67;1.97;;;12.60;99.90;;;;;;4999829;28;20601;-79
2022/09/15 04:32:36;;;;;;;4.47;1.87;;;12.60;99.90;;;;;;5004676;28;20227;-81
2022/09/15 04:35:05;;;;;;;4.83;2.37;;;12.60;99.90;;;;;;4995432;28;20220;-84
2022/09/15 04:37:32;;;;;;;5.93;2.10;;;12.60;99.90;;;;;;4996310;28;20882;-84
2022/09/15 04:40:00;;;;;;;7.13;3.10;;;12.60;99.90;;;;;;5014305;28;20638;-82
2022/09/15 04:42:27;;;;;;;4.70;1.90;;;12.50;99.90;;;;;;5001296;28;20283;-84
2022/09/15 04:44:53;;;;;;;5.30;1.90;;;12.60;99.90;;;;;;4995336;28;20841;-83
2022/09/15 04:47:20;;;;;;;3.47;1.60;;;12.60;99.90;;;;;;4998990;28;20620;-83
2022/09/15 04:49:47;;;;;;;5.80;1.90;;;12.60;99.90;;;;;;4999391;28;20233;-83
2022/09/15 04:52:15;;;;;;;7.10;2.00;;;12.60;99.90;;;;;;5012460;28;20303;-82
2022/09/15 04:54:42;;;;;;;5.17;1.80;;;12.60;99.90;;;;;;4996561;28;20387;-82
2022/09/15 04:57:09;;;;;;;4.37;1.80;;;12.60;99.90;;;;;;4997895;28;20228;-83
2022/09/15 04:59:35;;;;;;;5.73;1.80;;;12.60;99.90;;;;;;5003240;28;20238;-81
2022/09/15 05:02:02;;;;;;;5.00;1.67;;;12.60;99.90;;;;;;5001209;28;20692;-83
2022/09/15 05:04:31;;;;;;;6.13;2.00;;;12.60;99.90;;;;;;5005701;28;20217;-81
2022/09/15 05:06:57;;;;;;;6.83;1.90;;;12.60;99.90;;;;;;5002455;28;20218;-86
2022/09/15 05:09:28;;;;;;;6.40;2.03;;;12.60;99.90;;;;;;5002239;28;20229;-82
2022/09/15 05:11:57;;;;;;;6.80;1.90;;;12.60;99.90;;;;;;4995051;28;20230;-88
2022/09/15 05:14:24;;;;;;;6.30;1.77;;;12.60;99.90;;;;;;5001552;28;20425;-83
2022/09/15 05:16:50;;;;;;;5.20;1.93;;;12.60;99.90;;;;;;4996358;28;20221;-83
2022/09/15 05:19:20;;;;;;;4.80;1.80;;;12.60;99.90;;;;;;4993967;28;20235;-82
2022/09/15 05:21:47;;;;;;;4.93;1.90;;;12.60;99.90;;;;;;5010114;28;20323;-82
2022/09/15 05:24:13;;;;;;;5.03;1.60;;;12.60;99.90;;;;;;5005748;28;20227;-83
2022/09/15 05:26:41;;;;;;;7.50;1.60;;;12.60;99.90;;;;;;5008251;28;20240;-82
2022/09/15 05:29:08;;;;;;;7.07;1.87;;;12.60;99.90;;;;;;4998380;28;20299;-82
2022/09/15 05:31:37;;;;;;;3.80;1.67;;;12.60;99.90;;;;;;5015991;28;20309;-84
2022/09/15 05:34:05;;;;;;;6.13;1.80;;;12.60;99.90;;;;;;5008123;28;20226;-82
2022/09/15 05:36:32;;;;;;;7.40;1.80;;;12.70;99.90;;;;;;5006416;28;20428;-82
2022/09/15 05:39:00;;;;;;;5.70;1.70;;;12.70;99.90;;;;;;4996579;28;20222;-81
2022/09/15 05:41:28;;;;;;;5.20;1.60;;;12.70;99.90;;;;;;5001628;28;20246;-82
2022/09/15 05:43:57;;;;;;;8.03;1.60;;;12.70;99.90;;;;;;5019044;28;20227;-82
2022/09/15 05:46:25;;;;;;;6.60;1.60;;;12.80;99.90;;;;;;4988483;28;20264;-83
2022/09/15 05:48:54;;;;;;;8.33;1.70;;;12.80;99.90;;;;;;4984818;28;20233;-83
2022/09/15 05:51:21;;;;;;;6.60;1.70;;;12.80;99.90;;;;;;5008877;28;20254;-83
2022/09/15 05:53:47;;;;;;;7.80;1.70;;;12.80;99.90;;;;;;5003569;28;20908;-81
2022/09/15 05:56:16;;;;;;;6.07;1.80;;;12.90;99.90;;;;;;5017470;28;20702;-83
2022/09/15 05:58:44;;;;;;;7.20;1.63;;;12.90;99.90;;;;;;5005933;28;20233;-82
2022/09/15 06:01:14;;;;;;;5.27;1.83;;;12.90;99.90;;;;;;4995321;28;20235;-82
2022/09/15 06:03:42;;;;;;;4.17;1.40;;;13.00;99.90;;;;;;5002170;28;20607;-81
2022/09/15 06:06:09;;;;;;;7.77;2.00;;;12.90;99.90;;;;;;5020116;28;20256;-83
2022/09/15 06:08:37;;;;;;;5.47;1.70;;;13.00;99.90;;;;;;5001810;28;20231;-82
2022/09/15 06:11:06;;;;;;;3.73;1.33;;;13.00;99.90;;;;;;5005121;28;20261;-81
2022/09/15 06:13:33;;;;;;;4.90;1.30;;;13.00;99.90;;;;;;5020771;28;20564;-83
2022/09/15 06:16:05;;;;;;;5.07;1.63;;;13.00;99.90;;;;;;5002835;28;20226;-81
2022/09/15 06:18:36;;;;;;;5.83;1.93;;;13.00;99.90;;;;;;5003465;28;20226;-82
2022/09/15 06:21:07;;;;;;;9.30;1.50;;;13.00;99.90;;;;;;4984187;28;20236;-82
2022/09/15 06:23:37;;;;;;;7.63;1.80;;;13.10;99.90;;;;;;5000313;28;20658;-84
2022/09/15 06:26:06;;;;;;;7.57;1.90;;;13.10;99.90;;;;;;5006785;28;20243;-79
2022/09/15 06:28:33;;;;;;;3.43;1.30;;;13.10;99.90;;;;;;5006681;28;20290;-81
2022/09/15 06:31:00;;;;;;;6.60;1.50;;;13.10;99.90;;;;;;5003388;28;20749;-82
2022/09/15 06:33:26;;;;;;;7.10;1.53;;;13.20;99.90;;;;;;4999948;28;20225;-80
2022/09/15 06:36:01;;;;;;;8.70;1.80;;;13.20;99.90;;;;;;4996678;28;20268;-80
2022/09/15 06:38:28;;;;;;;5.03;1.37;;;13.30;99.90;;;;;;5007031;28;20228;-82
2022/09/15 06:40:56;;;;;;;7.37;1.70;;;13.40;99.90;;;;;;5005837;28;20227;-83
2022/09/15 06:43:23;;;;;;;4.17;1.53;;;13.40;99.90;;;;;;5005759;28;20332;-82
2022/09/15 06:45:52;;;;;;;6.17;1.53;;;13.50;99.90;;;;;;5000729;28;20286;-84
2022/09/15 06:48:19;;;;;;;5.20;1.10;;;13.60;99.90;;;;;;4988084;28;20230;-81
2022/09/15 06:50:52;;;;;;;4.07;1.20;;;13.70;99.90;;;;;;5000183;28;20695;-81
2022/09/15 06:53:20;;;;;;;5.37;1.30;;;13.70;99.90;;;;;;4995258;28;20790;-82
2022/09/15 06:55:47;;;;;;;6.50;1.40;;;13.80;99.90;;;;;;5000578;28;20614;-82
2022/09/15 06:58:14;;;;;;;3.97;1.33;;;13.90;99.90;;;;;;5002437;28;20233;-81
2022/09/15 07:00:41;;;;;;;5.00;1.30;;;13.90;99.90;;;;;;4998685;28;20303;-80
2022/09/15 07:03:07;;;;;;;9.00;1.67;;;13.90;99.90;;;;;;5002804;28;20231;-83
2022/09/15 07:05:34;;;;;;;7.60;2.60;;;13.90;99.90;;;;;;5006189;28;20221;-83
2022/09/15 07:08:01;;;;;;;5.63;1.33;;;13.90;99.90;;;;;;5006583;28;20851;-82
2022/09/15 07:10:29;;;;;;;5.87;1.40;;;13.90;99.90;;;;;;5000715;28;20558;-85
2022/09/15 07:12:57;;;;;;;5.47;1.40;;;13.90;99.90;;;;;;5018786;28;20243;-83
2022/09/15 07:15:26;;;;;;;5.70;1.30;;;14.00;99.90;;;;;;5013333;28;20462;-83
2022/09/15 07:17:52;;;;;;;4.63;1.00;;;14.00;99.90;;;;;;4999104;28;20610;-81
2022/09/15 07:20:19;;;;;;;7.27;1.33;;;14.00;99.90;;;;;;5000234;28;20238;-82
2022/09/15 07:22:46;;;;;;;4.00;1.40;;;14.00;99.90;;;;;;5015147;28;20290;-81
2022/09/15 07:25:12;;;;;;;4.83;1.17;;;14.00;99.90;;;;;;4998172;28;20945;-82
2022/09/15 07:27:40;;;;;;;6.20;1.30;;;14.10;99.90;;;;;;5001061;28;20236;-81
2022/09/15 07:30:08;;;;;;;8.60;1.50;;;14.10;99.90;;;;;;4997782;28;20250;-81
2022/09/15 07:32:34;;;;;;;6.03;1.30;;;14.10;99.90;;;;;;4998417;28;20299;-82
2022/09/15 07:35:01;;;;;;;6.23;1.13;;;14.10;99.90;;;;;;5002132;28;20223;-83
2022/09/15 07:37:28;;;;;;;5.83;1.73;;;14.20;99.90;;;;;;4999616;28;20222;-81
2022/09/15 07:39:55;;;;;;;5.60;1.57;;;14.30;99.90;;;;;;5001719;28;20709;-82
2022/09/15 07:42:21;;;;;;;7.47;1.73;;;14.40;99.90;;;;;;5007951;28;20802;-82
2022/09/15 07:44:49;;;;;;;5.67;1.50;;;14.50;99.90;;;;;;5019528;28;20228;-81
2022/09/15 07:47:16;;;;;;;7.90;1.60;;;14.50;99.90;;;;;;5001362;28;20236;-81
2022/09/15 07:49:44;;;;;;;5.40;1.43;;;14.60;99.90;;;;;;5020779;28;20253;-82
2022/09/15 07:52:11;;;;;;;5.93;1.57;;;14.70;99.90;;;;;;5006901;28;20290;-82
2022/09/15 07:54:38;;;;;;;5.53;1.30;;;14.90;99.90;;;;;;4991988;28;20232;-80
2022/09/15 07:57:05;;;;;;;5.63;1.60;;;15.00;99.90;;;;;;4995612;28;20224;-81
2022/09/15 07:59:32;;;;;;;5.30;1.63;;;15.10;99.90;;;;;;5008292;28;20255;-81
2022/09/15 08:01:59;;;;;;;4.90;1.43;;;15.20;99.90;;;;;;5005864;28;20230;-81
2022/09/15 08:04:26;;;;;;;6.17;1.47;;;15.30;99.90;;;;;;5007020;28;20233;-81
2022/09/15 08:06:53;;;;;;;7.13;1.67;;;15.30;99.90;;;;;;5007333;28;20232;-81
2022/09/15 08:09:19;;;;;;;7.20;1.40;;;15.50;99.90;;;;;;5006191;28;20244;-81
2022/09/15 08:11:46;;;;;;;4.67;1.23;;;15.50;99.90;;;;;;5007660;28;20261;-81
2022/09/15 08:14:13;;;;;;;7.27;1.93;;;15.70;99.90;;;;;;5007391;28;20305;-81
2022/09/15 08:16:40;;;;;;;9.60;1.63;;;15.90;99.90;;;;;;5004438;28;20228;-81
2022/09/15 08:19:08;;;;;;;3.93;1.43;;;16.30;99.90;;;;;;5000863;28;20224;-79
2022/09/15 08:21:34;;;;;;;5.43;1.40;;;16.60;99.90;;;;;;5012541;28;20237;-80
2022/09/15 08:24:01;;;;;;;4.27;1.40;;;17.00;99.90;;;;;;5001243;28;20218;-79
2022/09/15 08:26:29;;;;;;;6.30;1.50;;;17.40;99.90;;;;;;4996000;28;20236;-81
2022/09/15 08:28:56;;;;;;;5.60;1.40;;;17.80;99.90;;;;;;5003200;28;20639;-80
2022/09/15 08:31:23;;;;;;;4.67;1.27;;;18.10;99.90;;;;;;4995528;28;20226;-80
2022/09/15 08:33:52;;;;;;;9.30;1.53;;;18.50;99.90;;;;;;5000941;28;20296;-81
2022/09/15 08:36:21;;;;;;;5.57;1.30;;;18.80;99.90;;;;;;5000361;28;20312;-81
2022/09/15 08:38:48;;;;;;;4.50;1.40;;;19.10;99.90;;;;;;5006037;28;20682;-80
2022/09/15 08:41:20;;;;;;;4.37;1.43;;;19.50;99.90;;;;;;4990944;28;20709;-80
2022/09/15 08:43:58;;;;;;;7.50;1.37;;;19.90;99.90;;;;;;5003836;28;20316;-80
2022/09/15 08:46:29;;;;;;;6.03;1.30;;;20.30;99.90;;;;;;5003258;28;20225;-80
2022/09/15 08:49:03;;;;;;;5.47;1.60;;;20.60;99.40;;;;;;5006117;28;20308;-80
2022/09/15 08:51:38;;;;;;;5.13;1.58;;;20.90;99.20;;;;;;5004994;28;20241;-80
2022/09/15 08:54:10;;;;;;;3.72;1.08;;;21.10;97.90;;;;;;4992643;28;20255;-80
2022/09/15 08:56:37;;;;;;;5.63;1.38;;;21.40;97.90;;;;;;5006445;28;20336;-79
2022/09/15 08:59:03;;;;;;;3.65;1.40;;;21.70;97.60;;;;;;5009769;28;20956;-80
2022/09/15 09:01:44;;;;;;;8.20;1.70;;;21.80;96.60;;;;;;4998304;28;20812;-80
2022/09/15 09:04:32;;;;;;;5.82;1.58;;;21.70;95.70;;;;;;5006798;28;20225;-80
2022/09/15 09:07:12;;;;;;;4.13;1.38;;;21.60;95.70;;;;;;5006620;28;20561;-80
2022/09/15 09:09:44;;;;;;;7.45;1.40;;;21.40;95.30;;;;;;4990861;28;20233;-80
2022/09/15 09:12:39;;;;;;;3.08;1.10;;;21.40;95.20;;;;;;4988323;28;20234;-80
2022/09/15 09:15:25;;;;;;;2.67;0.90;;;21.30;94.50;;;;;;4995055;28;20425;-79
2022/09/15 09:18:14;;;;;;;5.45;1.40;;;21.20;94.60;;;;;;4989239;28;20228;-80
2022/09/15 09:20:52;;;;;;;3.20;1.17;;;21.20;94.30;;;;;;4987029;28;20606;-81
2022/09/15 09:23:24;;;;;;;3.85;1.20;;;21.10;93.90;;;;;;5001119;28;20226;-79
2022/09/15 09:25:52;;;;;;;8.20;1.40;;;21.00;94.00;;;;;;5008102;28;20226;-82
2022/09/15 09:28:29;;;;;;;3.17;1.25;;;20.90;94.00;;;;;;5006831;28;20350;-80
2022/09/15 09:31:01;;;;;;;3.40;1.10;;;20.80;94.00;;;;;;5000065;28;20705;-79
2022/09/15 09:33:34;;;;;;;3.88;1.10;;;20.80;94.50;;;;;;5001047;28;20252;-79
2022/09/15 09:36:01;;;;;;;7.53;1.63;;;20.90;93.80;;;;;;5001084;28;20902;-79
2022/09/15 09:38:31;;;;;;;4.30;1.40;;;21.00;93.90;;;;;;5000944;28;20225;-79
2022/09/15 09:40:59;;;;;;;8.27;1.40;;;21.00;95.40;;;;;;4995429;28;20218;-79
2022/09/15 09:43:26;;;;;;;3.33;1.20;;;20.90;94.90;;;;;;5001407;28;20733;-80
2022/09/15 09:45:53;;;;;;;4.23;1.57;;;20.60;95.40;;;;;;5001887;28;20664;-80
2022/09/15 09:48:22;;;;;;;4.93;1.40;;;20.20;95.60;;;;;;5005530;28;20222;-81
2022/09/15 09:50:49;;;;;;;4.87;1.20;;;19.80;96.70;;;;;;5005197;28;20225;-80
2022/09/15 09:53:35;;;;;;;5.40;1.47;;;19.40;97.40;;;;;;4999136;28;20312;-79
2022/09/15 09:56:17;;;;;;;5.57;1.57;;;19.00;98.30;;;;;;4996970;28;20242;-82
2022/09/15 09:58:44;;;;;;;3.97;1.33;;;18.60;98.40;;;;;;5004553;28;20232;-81
2022/09/15 10:01:13;;;;;;;4.50;1.07;;;18.30;98.60;;;;;;5005138;28;20231;-83
2022/09/15 10:03:40;;;;;;;3.80;1.00;;;18.00;99.10;;;;;;4999374;28;20282;-83
2022/09/15 10:06:12;;;;;;;5.03;1.17;;;17.60;99.50;;;;;;5002361;28;20219;-82
2022/09/15 10:08:53;;;;;;;5.60;1.37;;;17.30;99.90;;;;;;4997129;28;20222;-82
2022/09/15 10:11:21;;;;;;;6.77;1.40;;;17.00;99.90;;;;;;5000220;28;20232;-82
2022/09/15 10:13:54;;;;;;;3.57;1.00;;;16.80;99.90;;;;;;5004778;28;20223;-83
2022/09/15 10:16:22;;;;;;;5.23;1.10;;;16.60;99.90;;;;;;4999551;28;20217;-83
2022/09/15 10:18:49;;;;;;;4.57;1.00;;;16.50;99.90;;;;;;5001669;28;20661;-81
2022/09/15 10:21:22;;;;;;;6.20;1.40;;;16.40;99.90;;;;;;4999515;28;20556;-81
2022/09/15 10:23:50;;;;;;;1.83;1.00;;;16.40;99.90;;;;;;5000183;28;20228;-82
2022/09/15 10:26:28;;;;;;;3.80;1.13;;;16.50;99.90;;;;;;5004561;28;20314;-82
2022/09/15 10:29:14;;;;;;;7.17;1.30;;;16.60;99.90;;;;;;5006227;28;20228;-82
2022/09/15 10:31:42;;;;;;;7.30;1.73;;;17.00;99.90;;;;;;5001063;28;20290;-82
2022/09/15 10:34:32;;;;;;;6.47;1.63;;;17.40;99.90;;;;;;5003123;28;20226;-81
2022/09/15 10:37:08;;;;;;;5.73;1.70;;;18.00;99.90;;;;;;5003671;28;20229;-82
2022/09/15 10:39:49;;;;;;;4.80;1.40;;;18.60;99.90;;;;;;5016638;28;20312;-79
2022/09/15 10:42:25;;;;;;;5.25;1.20;;;19.20;99.90;;;;;;4997253;28;20241;-80
2022/09/15 10:45:06;;;;;;;5.88;1.55;;;19.60;99.90;;;;;;4994886;28;20320;-79
2022/09/15 10:47:46;;;;;;;4.35;1.25;;;20.00;99.90;;;;;;4999414;28;20229;-78
2022/09/15 10:50:23;;;;;;;5.17;1.30;;;20.20;99.90;;;;;;4997145;28;20225;-78
2022/09/15 10:53:08;;;;;;;4.93;1.00;;;20.30;99.90;;;;;;5005868;28;20805;-79
2022/09/15 10:55:53;;;;;;;4.53;1.40;;;20.30;99.90;;;;;;4987957;28;20217;-79
2022/09/15 10:58:33;;;;;;;3.37;1.33;;;20.40;99.90;;;;;;5004619;28;20221;-79
2022/09/15 11:01:17;;;;;;;5.07;1.30;;;20.50;99.90;;;;;;5001884;28;20276;-78
2022/09/15 11:04:10;;;;;;;3.13;1.00;;;20.70;99.90;;;;;;5016566;28;20324;-80
2022/09/15 11:06:45;;;;;;;4.20;1.15;;;21.00;99.10;;;;;;4983409;28;20232;-77
2022/09/15 11:09:22;;;;;;;3.22;1.00;;;21.20;98.60;;;;;;4992268;28;20235;-77
2022/09/15 11:12:15;;;;;;;2.65;0.90;;;21.40;97.20;;;;;;5003700;28;20286;-78
2022/09/15 11:14:57;;;;;;;1.42;0.70;;;21.40;96.10;;;;;;4991186;28;20359;-76
2022/09/15 11:17:44;;;;;;;3.17;1.00;;;21.50;95.60;;;;;;5000729;28;20303;-77
2022/09/15 11:20:31;;;;;;;2.97;1.02;;;21.60;94.90;;;;;;5009941;28;20233;-77
2022/09/15 11:23:04;;;;;;;2.28;0.70;;;21.60;93.70;;;;;;5015173;28;20649;-77
2022/09/15 11:25:35;;;;;;;2.10;0.80;;;21.70;93.40;;;;;;5000057;28;21036;-77
2022/09/15 11:28:12;;;;;;;2.10;0.82;;;21.80;92.40;;;;;;5001284;28;20242;-77
2022/09/15 11:30:43;;;;;;;1.98;0.80;;;21.90;91.60;;;;;;5000294;28;20229;-78
2022/09/15 11:33:18;;;;;;;3.65;1.00;;;22.00;93.00;;;;;;4998968;28;20221;-77
2022/09/15 11:35:47;;;;;;;2.75;0.93;;;22.20;93.00;;;;;;5001687;28;20229;-78
2022/09/15 11:38:26;;;;;;;1.88;0.98;;;22.00;91.80;;;;;;5002975;28;20217;-80
2022/09/15 11:40:56;;;;;;;3.60;1.03;;;21.50;91.60;;;;;;5011072;28;20233;-80
2022/09/15 11:43:32;;;;;;;2.13;0.90;;;20.90;92.50;;;;;;5010584;28;20235;-79
2022/09/15 11:46:03;;;;;;;4.73;0.97;;;20.10;94.10;;;;;;5003178;28;20280;-80
2022/09/15 11:48:37;;;;;;;2.17;0.80;;;19.40;94.90;;;;;;5007296;28;20587;-80
2022/09/15 11:51:06;;;;;;;2.63;1.00;;;18.70;95.60;;;;;;5002701;28;20224;-79
2022/09/15 11:53:41;;;;;;;3.30;0.90;;;18.20;96.70;;;;;;5016473;28;20229;-82
2022/09/15 11:56:17;;;;;;;5.03;0.83;;;17.70;97.60;;;;;;5014179;28;20331;-81
2022/09/15 11:59:00;;;;;;;3.77;0.87;;;17.40;99.90;;;;;;4976650;28;20227;-83
2022/09/15 12:01:33;;;;;;;4.57;0.90;;;17.30;99.90;;;;;;4977262;28;20290;-79
2022/09/15 12:04:08;;;;;;;4.60;1.27;;;17.40;99.90;;;;;;5018120;28;20231;-80
2022/09/15 12:06:41;;;;;;;1.80;0.70;;;17.50;99.90;;;;;;4998732;28;20236;-80
2022/09/15 12:09:12;;;;;;;3.23;0.80;;;17.70;99.90;;;;;;4997024;28;20236;-80
2022/09/15 12:11:42;;;;;;;4.20;1.20;;;17.90;99.90;;;;;;4998176;28;20252;-80
2022/09/15 12:14:15;;;;;;;3.93;1.00;;;18.10;99.90;;;;;;4999940;28;20224;-80
2022/09/15 12:16:42;;;;;;;3.63;1.03;;;18.30;99.90;;;;;;4999966;28;20246;-79
2022/09/15 12:19:16;;;;;;;4.20;0.83;;;18.40;99.70;;;;;;4999732;28;20229;-80
2022/09/15 12:21:55;;;;;;;2.27;0.90;;;18.60;99.40;;;;;;5002157;28;20242;-77
2022/09/15 12:24:32;;;;;;;3.30;1.50;;;18.80;99.00;;;;;;4997758;28;20238;-77
2022/09/15 12:27:03;;;;;;;3.30;0.87;;;18.90;99.50;;;;;;5015435;28;20217;-78
2022/09/15 12:29:39;;;;;;;4.47;1.10;;;19.10;98.90;;;;;;5003506;28;20240;-80
2022/09/15 12:32:20;;;;;;;3.60;1.00;;;19.30;98.60;;;;;;4999329;28;20692;-78
2022/09/15 12:35:25;;;;;;;2.43;1.00;;;19.40;97.80;;;;;;5017819;28;20217;-78
2022/09/15 12:37:54;;;;;;;3.37;1.10;;;19.60;97.60;;;;;;5003107;28;20253;-80
2022/09/15 12:40:32;;;;;;;2.58;1.25;;;19.70;96.80;;;;;;5021058;28;20226;-79
2022/09/15 12:43:01;;;;;;;8.73;1.30;;;19.70;97.20;;;;;;4987683;28;20595;-78
2022/09/15 12:45:31;;;;;;;4.38;1.20;;;19.80;97.10;;;;;;4994277;28;20240;-77
2022/09/15 12:48:03;;;;;;;4.88;1.45;;;20.00;96.40;;;;;;5012770;28;20304;-78
2022/09/15 12:50:32;;;;;;;4.85;1.20;;;20.10;96.10;;;;;;5015830;28;20684;-77
2022/09/15 12:53:01;;;;;;;5.23;1.30;;;20.20;96.10;;;;;;5004292;28;20217;-78
2022/09/15 12:55:32;;;;;;;3.70;1.02;;;20.30;95.40;;;;;;4998602;28;20226;-77
2022/09/15 12:58:01;;;;;;;2.70;1.00;;;20.40;95.00;;;;;;4993133;28;20226;-77
2022/09/15 13:00:40;;;;;;;2.93;0.90;;;20.50;93.90;;;;;;5000631;28;20241;-77
2022/09/15 13:03:27;;;;;;;3.50;0.90;;;20.50;92.60;;;;;;4991880;28;20742;-77
2022/09/15 13:06:17;;;;;;;1.97;0.90;;;20.40;91.60;;;;;;4997052;28;20218;-77
2022/09/15 13:09:19;;;;;;;3.17;0.80;;;20.40;92.10;;;;;;5014014;28;20229;-78